sensor_id;sensor_type;location;lat;lon;timestamp;pressure;altitude;pressure_sealevel;temperature;humidity
75617;BME280;64200;55.426;37.758;2023-09-19T00:00:58;99829.50;;;13.49;71.57
75617;BME280;64200;55.426;37.758;2023-09-19T00:05:59;99828.41;;;13.46;71.55
75617;BME280;64200;55.426;37.758;2023-09-19T00:11:00;99826.38;;;13.47;71.92
75617;BME280;64200;55.426;37.758;2023-09-19T00:16:10;99825.13;;;13.63;71.19
75617;BME280;64200;55.426;37.758;2023-09-19T00:21:14;99822.72;;;13.70;70.99
75617;BME280;64200;55.426;37.758;2023-09-19T00:26:15;99829.50;;;13.79;70.72
75617;BME280;64200;55.426;37.758;2023-09-19T00:31:18;99823.88;;;13.79;70.58
75617;BME280;64200;55.426;37.758;2023-09-19T00:36:18;99817.00;;;13.65;70.07
75617;BME280;64200;55.426;37.758;2023-09-19T00:41:19;99825.72;;;13.67;70.50
75617;BME280;64200;55.426;37.758;2023-09-19T00:46:19;99834.63;;;13.65;70.48
75617;BME280;64200;55.426;37.758;2023-09-19T00:51:20;99838.28;;;13.72;70.46
75617;BME280;64200;55.426;37.758;2023-09-19T00:56:22;99836.34;;;13.78;70.72
75617;BME280;64200;55.426;37.758;2023-09-19T01:01:23;99821.75;;;13.74;69.97
75617;BME280;64200;55.426;37.758;2023-09-19T01:06:25;99823.69;;;13.67;69.88
75617;BME280;64200;55.426;37.758;2023-09-19T01:11:45;99827.19;;;13.62;69.93
75617;BME280;64200;55.426;37.758;2023-09-19T01:16:53;99833.66;;;13.53;70.12
75617;BME280;64200;55.426;37.758;2023-09-19T01:22:17;99834.50;;;13.60;70.43
75617;BME280;64200;55.426;37.758;2023-09-19T01:32:51;99831.50;;;13.48;70.62
75617;BME280;64200;55.426;37.758;2023-09-19T01:37:55;99827.44;;;13.49;70.94
75617;BME280;64200;55.426;37.758;2023-09-19T01:42:59;99825.53;;;13.56;70.51
75617;BME280;64200;55.426;37.758;2023-09-19T01:53:55;99825.53;;;13.56;70.83
75617;BME280;64200;55.426;37.758;2023-09-19T01:58:59;99809.78;;;13.43;71.00
75617;BME280;64200;55.426;37.758;2023-09-19T02:04:04;99801.25;;;13.38;71.24
75617;BME280;64200;55.426;37.758;2023-09-19T02:09:04;99792.22;;;13.33;71.20
75617;BME280;64200;55.426;37.758;2023-09-19T02:14:05;99795.25;;;13.30;71.52
75617;BME280;64200;55.426;37.758;2023-09-19T02:19:08;99796.19;;;13.12;71.88
75617;BME280;64200;55.426;37.758;2023-09-19T02:24:09;99803.75;;;12.96;72.56
75617;BME280;64200;55.426;37.758;2023-09-19T02:29:10;99795.16;;;12.61;73.98
75617;BME280;64200;55.426;37.758;2023-09-19T02:34:13;99786.34;;;12.29;75.47
75617;BME280;64200;55.426;37.758;2023-09-19T02:39:16;99780.16;;;12.25;74.86
75617;BME280;64200;55.426;37.758;2023-09-19T02:44:17;99773.63;;;12.28;74.99
75617;BME280;64200;55.426;37.758;2023-09-19T02:49:17;99772.88;;;12.18;75.86
75617;BME280;64200;55.426;37.758;2023-09-19T02:54:18;99789.91;;;12.05;76.31
75617;BME280;64200;55.426;37.758;2023-09-19T02:59:19;99778.72;;;12.05;75.70
75617;BME280;64200;55.426;37.758;2023-09-19T03:04:20;99774.16;;;12.17;75.91
75617;BME280;64200;55.426;37.758;2023-09-19T03:09:20;99767.13;;;12.22;76.03
75617;BME280;64200;55.426;37.758;2023-09-19T03:14:21;99780.56;;;12.33;75.14
75617;BME280;64200;55.426;37.758;2023-09-19T03:19:22;99793.31;;;12.34;74.98
75617;BME280;64200;55.426;37.758;2023-09-19T03:24:23;99792.53;;;12.33;74.75
75617;BME280;64200;55.426;37.758;2023-09-19T03:29:24;99784.59;;;12.41;74.99
75617;BME280;64200;55.426;37.758;2023-09-19T03:34:25;99783.16;;;12.45;74.84
75617;BME280;64200;55.426;37.758;2023-09-19T03:39:26;99776.06;;;12.59;74.86
75617;BME280;64200;55.426;37.758;2023-09-19T03:44:27;99774.13;;;12.65;74.18
75617;BME280;64200;55.426;37.758;2023-09-19T03:49:27;99779.56;;;12.69;74.29
75617;BME280;64200;55.426;37.758;2023-09-19T03:54:27;99778.38;;;12.61;74.45
75617;BME280;64200;55.426;37.758;2023-09-19T03:59:28;99776.28;;;12.71;74.84
75617;BME280;64200;55.426;37.758;2023-09-19T04:04:29;99782.31;;;12.93;74.26
75617;BME280;64200;55.426;37.758;2023-09-19T04:09:29;99777.41;;;12.88;73.79
75617;BME280;64200;55.426;37.758;2023-09-19T04:14:30;99780.72;;;12.77;73.68
75617;BME280;64200;55.426;37.758;2023-09-19T04:19:31;99777.22;;;12.92;74.25
75617;BME280;64200;55.426;37.758;2023-09-19T04:24:31;99778.88;;;12.98;73.03
75617;BME280;64200;55.426;37.758;2023-09-19T04:29:33;99781.22;;;12.76;73.83
75617;BME280;64200;55.426;37.758;2023-09-19T04:34:33;99770.03;;;12.76;74.19
75617;BME280;64200;55.426;37.758;2023-09-19T04:39:34;99778.44;;;12.91;73.69
75617;BME280;64200;55.426;37.758;2023-09-19T04:44:35;99772.84;;;12.91;73.54
75617;BME280;64200;55.426;37.758;2023-09-19T04:49:36;99764.44;;;12.91;73.61
75617;BME280;64200;55.426;37.758;2023-09-19T04:54:37;99772.78;;;13.00;73.49
75617;BME280;64200;55.426;37.758;2023-09-19T04:59:38;99754.13;;;12.82;73.50
75617;BME280;64200;55.426;37.758;2023-09-19T05:04:41;99750.38;;;12.85;73.55
75617;BME280;64200;55.426;37.758;2023-09-19T05:09:42;99741.53;;;12.77;74.20
75617;BME280;64200;55.426;37.758;2023-09-19T05:14:42;99742.81;;;12.76;74.53
75617;BME280;64200;55.426;37.758;2023-09-19T05:19:43;99753.38;;;13.11;73.66
75617;BME280;64200;55.426;37.758;2023-09-19T05:24:44;99746.16;;;13.20;73.72
75617;BME280;64200;55.426;37.758;2023-09-19T05:29:48;99745.66;;;13.06;73.77
75617;BME280;64200;55.426;37.758;2023-09-19T05:34:51;99745.88;;;13.32;73.92
75617;BME280;64200;55.426;37.758;2023-09-19T05:39:56;99742.13;;;13.35;73.26
75617;BME280;64200;55.426;37.758;2023-09-19T05:44:57;99753.09;;;13.24;73.23
75617;BME280;64200;55.426;37.758;2023-09-19T05:49:58;99747.63;;;13.45;73.31
75617;BME280;64200;55.426;37.758;2023-09-19T05:54:59;99765.50;;;13.77;72.13
75617;BME280;64200;55.426;37.758;2023-09-19T06:00:00;99741.16;;;13.53;72.07
75617;BME280;64200;55.426;37.758;2023-09-19T06:05:01;99740.56;;;13.64;72.57
75617;BME280;64200;55.426;37.758;2023-09-19T06:10:03;99753.94;;;14.05;71.09
75617;BME280;64200;55.426;37.758;2023-09-19T06:15:06;99744.84;;;14.31;69.87
75617;BME280;64200;55.426;37.758;2023-09-19T06:20:09;99744.44;;;15.05;70.09
75617;BME280;64200;55.426;37.758;2023-09-19T06:25:16;99749.81;;;14.41;69.77
75617;BME280;64200;55.426;37.758;2023-09-19T06:30:20;99737.22;;;14.72;70.41
75617;BME280;64200;55.426;37.758;2023-09-19T06:35:21;99749.16;;;15.72;67.53
75617;BME280;64200;55.426;37.758;2023-09-19T06:40:22;99746.56;;;15.37;67.26
75617;BME280;64200;55.426;37.758;2023-09-19T06:45:23;99749.31;;;15.31;67.48
75617;BME280;64200;55.426;37.758;2023-09-19T06:50:26;99750.25;;;15.49;67.82
75617;BME280;64200;55.426;37.758;2023-09-19T06:55:28;99732.53;;;16.06;66.80
75617;BME280;64200;55.426;37.758;2023-09-19T07:00:31;99724.25;;;16.40;65.41
75617;BME280;64200;55.426;37.758;2023-09-19T07:05:37;99750.94;;;17.56;63.46
75617;BME280;64200;55.426;37.758;2023-09-19T07:10:40;99736.06;;;17.67;60.95
75617;BME280;64200;55.426;37.758;2023-09-19T07:15:49;99734.47;;;17.09;61.45
75617;BME280;64200;55.426;37.758;2023-09-19T07:20:50;99732.78;;;16.63;63.34
75617;BME280;64200;55.426;37.758;2023-09-19T07:25:51;99739.00;;;16.24;64.17
75617;BME280;64200;55.426;37.758;2023-09-19T07:30:51;99740.03;;;16.81;63.92
75617;BME280;64200;55.426;37.758;2023-09-19T07:35:52;99746.84;;;17.51;62.77
75617;BME280;64200;55.426;37.758;2023-09-19T07:40:59;99736.97;;;18.37;62.63
75617;BME280;64200;55.426;37.758;2023-09-19T07:46:04;99742.00;;;18.67;61.09
75617;BME280;64200;55.426;37.758;2023-09-19T07:51:08;99737.13;;;19.15;59.46
75617;BME280;64200;55.426;37.758;2023-09-19T07:56:09;99722.22;;;19.81;56.63
75617;BME280;64200;55.426;37.758;2023-09-19T08:01:10;99725.50;;;19.85;57.41
75617;BME280;64200;55.426;37.758;2023-09-19T08:06:11;99723.97;;;20.33;55.42
75617;BME280;64200;55.426;37.758;2023-09-19T08:11:11;99713.00;;;19.99;55.00
75617;BME280;64200;55.426;37.758;2023-09-19T08:16:13;99718.34;;;19.48;55.69
75617;BME280;64200;55.426;37.758;2023-09-19T08:21:15;99711.13;;;19.83;56.21
75617;BME280;64200;55.426;37.758;2023-09-19T08:26:16;99732.47;;;23.85;56.60
75617;BME280;64200;55.426;37.758;2023-09-19T08:31:17;99718.31;;;27.23;46.39
75617;BME280;64200;55.426;37.758;2023-09-19T08:36:17;99725.25;;;29.37;35.47
75617;BME280;64200;55.426;37.758;2023-09-19T08:41:18;99712.81;;;26.84;37.96
75617;BME280;64200;55.426;37.758;2023-09-19T08:46:20;99703.44;;;26.35;40.65
75617;BME280;64200;55.426;37.758;2023-09-19T08:51:43;99706.44;;;28.54;37.57
75617;BME280;64200;55.426;37.758;2023-09-19T08:56:46;99712.34;;;29.66;34.21
75617;BME280;64200;55.426;37.758;2023-09-19T09:01:48;99708.34;;;31.37;33.53
75617;BME280;64200;55.426;37.758;2023-09-19T09:06:51;99688.56;;;31.22;30.67
75617;BME280;64200;55.426;37.758;2023-09-19T09:11:55;99703.13;;;32.97;29.56
75617;BME280;64200;55.426;37.758;2023-09-19T09:16:57;99706.88;;;35.21;26.04
75617;BME280;64200;55.426;37.758;2023-09-19T09:22:07;99697.25;;;33.89;28.21
75617;BME280;64200;55.426;37.758;2023-09-19T09:27:12;99702.66;;;34.96;22.84
75617;BME280;64200;55.426;37.758;2023-09-19T09:32:28;99705.81;;;36.55;23.47
75617;BME280;64200;55.426;37.758;2023-09-19T09:37:29;99702.19;;;37.00;21.64
75617;BME280;64200;55.426;37.758;2023-09-19T09:42:34;99684.25;;;35.86;22.34
75617;BME280;64200;55.426;37.758;2023-09-19T09:47:46;99678.47;;;35.86;22.50
75617;BME280;64200;55.426;37.758;2023-09-19T09:52:55;99662.09;;;36.37;22.12
75617;BME280;64200;55.426;37.758;2023-09-19T09:58:16;99665.41;;;38.23;19.41
75617;BME280;64200;55.426;37.758;2023-09-19T10:03:21;99651.28;;;37.65;20.93
75617;BME280;64200;55.426;37.758;2023-09-19T10:08:23;99662.06;;;38.67;19.66
75617;BME280;64200;55.426;37.758;2023-09-19T10:13:25;99652.25;;;38.40;18.51
75617;BME280;64200;55.426;37.758;2023-09-19T10:18:27;99637.72;;;37.38;20.19
75617;BME280;64200;55.426;37.758;2023-09-19T10:23:30;99646.59;;;36.62;21.03
75617;BME280;64200;55.426;37.758;2023-09-19T10:28:35;99628.22;;;37.53;21.04
75617;BME280;64200;55.426;37.758;2023-09-19T10:33:36;99630.13;;;40.35;19.15
75617;BME280;64200;55.426;37.758;2023-09-19T10:38:38;99620.69;;;40.15;17.50
75617;BME280;64200;55.426;37.758;2023-09-19T10:43:45;99627.69;;;39.21;18.61
75617;BME280;64200;55.426;37.758;2023-09-19T10:48:50;99618.19;;;39.83;18.90
75617;BME280;64200;55.426;37.758;2023-09-19T10:53:56;99608.03;;;39.64;18.45
75617;BME280;64200;55.426;37.758;2023-09-19T10:59:09;99612.94;;;40.46;17.94
75617;BME280;64200;55.426;37.758;2023-09-19T11:04:22;99618.34;;;42.15;16.28
75617;BME280;64200;55.426;37.758;2023-09-19T11:09:52;99599.25;;;41.84;15.33
75617;BME280;64200;55.426;37.758;2023-09-19T11:14:58;99594.47;;;42.59;15.94
75617;BME280;64200;55.426;37.758;2023-09-19T11:25:47;99598.06;;;42.23;16.79
75617;BME280;64200;55.426;37.758;2023-09-19T11:30:49;99600.56;;;43.83;14.77
75617;BME280;64200;55.426;37.758;2023-09-19T11:46:29;99591.09;;;43.08;14.81
75617;BME280;64200;55.426;37.758;2023-09-19T11:51:40;99582.56;;;44.57;15.10
75617;BME280;64200;55.426;37.758;2023-09-19T11:56:43;99581.22;;;45.25;13.41
75617;BME280;64200;55.426;37.758;2023-09-19T12:01:51;99576.31;;;42.04;14.64
75617;BME280;64200;55.426;37.758;2023-09-19T12:06:57;99570.75;;;41.03;16.41
75617;BME280;64200;55.426;37.758;2023-09-19T12:11:59;99549.78;;;40.36;17.81
75617;BME280;64200;55.426;37.758;2023-09-19T12:16:59;99540.69;;;41.84;16.33
75617;BME280;64200;55.426;37.758;2023-09-19T12:22:03;99550.34;;;43.67;15.54
75617;BME280;64200;55.426;37.758;2023-09-19T12:27:07;99545.91;;;39.83;17.16
75617;BME280;64200;55.426;37.758;2023-09-19T12:32:07;99530.53;;;36.98;20.13
75617;BME280;64200;55.426;37.758;2023-09-19T12:37:10;99510.53;;;37.06;21.07
75617;BME280;64200;55.426;37.758;2023-09-19T12:42:11;99522.44;;;39.15;19.10
75617;BME280;64200;55.426;37.758;2023-09-19T12:47:17;99513.41;;;38.10;19.51
75617;BME280;64200;55.426;37.758;2023-09-19T12:52:20;99504.81;;;33.39;23.50
75617;BME280;64200;55.426;37.758;2023-09-19T12:57:24;99501.81;;;30.67;28.03
75617;BME280;64200;55.426;37.758;2023-09-19T13:02:26;99484.84;;;29.03;31.87
75617;BME280;64200;55.426;37.758;2023-09-19T13:07:43;99479.72;;;29.01;31.19
75617;BME280;64200;55.426;37.758;2023-09-19T13:12:44;99481.63;;;28.69;31.44
75617;BME280;64200;55.426;37.758;2023-09-19T13:17:47;99482.41;;;28.52;32.94
75617;BME280;64200;55.426;37.758;2023-09-19T13:22:55;99469.91;;;28.20;33.24
75617;BME280;64200;55.426;37.758;2023-09-19T13:28:06;99479.91;;;26.97;36.47
75617;BME280;64200;55.426;37.758;2023-09-19T13:33:10;99470.38;;;26.19;37.93
75617;BME280;64200;55.426;37.758;2023-09-19T13:38:11;99468.22;;;25.86;39.51
75617;BME280;64200;55.426;37.758;2023-09-19T13:43:12;99463.34;;;25.00;41.83
75617;BME280;64200;55.426;37.758;2023-09-19T13:48:13;99460.06;;;24.18;45.51
75617;BME280;64200;55.426;37.758;2023-09-19T13:53:14;99455.88;;;24.12;45.96
75617;BME280;64200;55.426;37.758;2023-09-19T13:58:14;99449.53;;;23.90;46.01
75617;BME280;64200;55.426;37.758;2023-09-19T14:03:15;99459.50;;;24.28;45.35
75617;BME280;64200;55.426;37.758;2023-09-19T14:08:16;99451.94;;;24.46;45.16
75617;BME280;64200;55.426;37.758;2023-09-19T14:13:16;99438.41;;;24.54;44.64
75617;BME280;64200;55.426;37.758;2023-09-19T14:18:17;99436.16;;;24.45;45.13
75617;BME280;64200;55.426;37.758;2023-09-19T14:23:18;99444.31;;;24.48;45.45
75617;BME280;64200;55.426;37.758;2023-09-19T14:28:19;99444.47;;;24.19;45.66
75617;BME280;64200;55.426;37.758;2023-09-19T14:33:19;99427.22;;;24.41;45.54
75617;BME280;64200;55.426;37.758;2023-09-19T14:38:20;99427.19;;;24.48;44.05
75617;BME280;64200;55.426;37.758;2023-09-19T14:43:20;99420.75;;;24.48;43.80
75617;BME280;64200;55.426;37.758;2023-09-19T14:48:21;99420.19;;;24.49;43.63
75617;BME280;64200;55.426;37.758;2023-09-19T14:53:25;99416.97;;;24.68;43.29
75617;BME280;64200;55.426;37.758;2023-09-19T14:58:26;99413.72;;;24.49;42.73
75617;BME280;64200;55.426;37.758;2023-09-19T15:03:30;99420.91;;;24.19;42.49
75617;BME280;64200;55.426;37.758;2023-09-19T15:08:34;99413.03;;;23.81;42.40
75617;BME280;64200;55.426;37.758;2023-09-19T15:13:36;99412.25;;;23.73;42.71
75617;BME280;64200;55.426;37.758;2023-09-19T15:18:37;99406.09;;;23.45;42.50
75617;BME280;64200;55.426;37.758;2023-09-19T15:23:40;99409.13;;;23.11;43.08
75617;BME280;64200;55.426;37.758;2023-09-19T15:28:41;99401.41;;;22.90;43.31
75617;BME280;64200;55.426;37.758;2023-09-19T15:33:41;99404.19;;;22.83;45.25
75617;BME280;64200;55.426;37.758;2023-09-19T15:43:58;99397.53;;;22.09;48.57
75617;BME280;64200;55.426;37.758;2023-09-19T15:49:02;99388.81;;;21.72;48.98
75617;BME280;64200;55.426;37.758;2023-09-19T15:54:08;99391.91;;;21.61;49.17
75617;BME280;64200;55.426;37.758;2023-09-19T15:59:10;99396.94;;;21.41;49.57
75617;BME280;64200;55.426;37.758;2023-09-19T16:04:15;99392.41;;;21.12;51.33
75617;BME280;64200;55.426;37.758;2023-09-19T16:09:17;99402.13;;;20.90;51.44
75617;BME280;64200;55.426;37.758;2023-09-19T16:14:18;99395.47;;;20.87;51.51
75617;BME280;64200;55.426;37.758;2023-09-19T16:19:19;99402.78;;;20.82;51.46
75617;BME280;64200;55.426;37.758;2023-09-19T16:24:19;99411.38;;;20.77;52.34
75617;BME280;64200;55.426;37.758;2023-09-19T16:29:20;99412.47;;;20.87;51.82
75617;BME280;64200;55.426;37.758;2023-09-19T16:34:24;99409.53;;;20.79;52.16
75617;BME280;64200;55.426;37.758;2023-09-19T16:39:26;99398.03;;;20.58;53.11
75617;BME280;64200;55.426;37.758;2023-09-19T16:44:26;99417.06;;;20.44;54.18
75617;BME280;64200;55.426;37.758;2023-09-19T16:49:30;99420.44;;;20.43;54.40
75617;BME280;64200;55.426;37.758;2023-09-19T16:54:30;99418.25;;;20.35;54.62
75617;BME280;64200;55.426;37.758;2023-09-19T16:59:31;99424.16;;;20.38;54.01
75617;BME280;64200;55.426;37.758;2023-09-19T17:04:31;99421.81;;;20.23;54.61
75617;BME280;64200;55.426;37.758;2023-09-19T17:09:32;99408.75;;;20.20;54.80
75617;BME280;64200;55.426;37.758;2023-09-19T17:14:36;99431.38;;;20.20;54.71
75617;BME280;64200;55.426;37.758;2023-09-19T17:19:36;99422.97;;;20.14;54.95
75617;BME280;64200;55.426;37.758;2023-09-19T17:24:37;99442.44;;;20.04;55.37
75617;BME280;64200;55.426;37.758;2023-09-19T17:29:37;99423.16;;;20.03;55.19
75617;BME280;64200;55.426;37.758;2023-09-19T17:34:38;99431.34;;;20.06;55.29
75617;BME280;64200;55.426;37.758;2023-09-19T17:39:39;99433.78;;;19.96;55.52
75617;BME280;64200;55.426;37.758;2023-09-19T17:44:39;99431.03;;;19.91;55.69
75617;BME280;64200;55.426;37.758;2023-09-19T17:49:40;99422.34;;;19.89;55.14
75617;BME280;64200;55.426;37.758;2023-09-19T17:54:44;99422.38;;;19.64;56.15
75617;BME280;64200;55.426;37.758;2023-09-19T17:59:49;99429.34;;;19.63;56.37
75617;BME280;64200;55.426;37.758;2023-09-19T18:04:49;99428.03;;;19.64;56.28
75617;BME280;64200;55.426;37.758;2023-09-19T18:09:53;99434.81;;;19.36;57.25
75617;BME280;64200;55.426;37.758;2023-09-19T18:14:53;99441.22;;;19.18;58.19
75617;BME280;64200;55.426;37.758;2023-09-19T18:19:54;99430.69;;;19.18;57.84
75617;BME280;64200;55.426;37.758;2023-09-19T18:24:54;99442.81;;;19.13;57.76
75617;BME280;64200;55.426;37.758;2023-09-19T18:29:55;99429.75;;;19.10;57.60
75617;BME280;64200;55.426;37.758;2023-09-19T18:34:56;99429.13;;;18.98;58.21
75617;BME280;64200;55.426;37.758;2023-09-19T18:39:57;99431.75;;;18.90;58.00
75617;BME280;64200;55.426;37.758;2023-09-19T18:44:57;99426.34;;;18.62;59.04
75617;BME280;64200;55.426;37.758;2023-09-19T18:49:58;99437.69;;;18.56;58.95
75617;BME280;64200;55.426;37.758;2023-09-19T18:54:58;99444.56;;;18.36;59.73
75617;BME280;64200;55.426;37.758;2023-09-19T18:59:59;99437.63;;;18.37;59.53
75617;BME280;64200;55.426;37.758;2023-09-19T19:05:00;99434.34;;;18.28;59.58
75617;BME280;64200;55.426;37.758;2023-09-19T19:10:04;99428.56;;;18.14;59.83
75617;BME280;64200;55.426;37.758;2023-09-19T19:15:06;99412.91;;;18.13;59.90
75617;BME280;64200;55.426;37.758;2023-09-19T19:20:07;99410.72;;;18.00;59.48
75617;BME280;64200;55.426;37.758;2023-09-19T19:25:10;99430.69;;;18.02;59.46
75617;BME280;64200;55.426;37.758;2023-09-19T19:30:11;99423.53;;;17.96;59.76
75617;BME280;64200;55.426;37.758;2023-09-19T19:35:12;99426.63;;;17.98;59.32
75617;BME280;64200;55.426;37.758;2023-09-19T19:40:13;99424.19;;;17.71;60.08
75617;BME280;64200;55.426;37.758;2023-09-19T19:45:13;99419.63;;;17.63;59.96
75617;BME280;64200;55.426;37.758;2023-09-19T19:50:14;99428.81;;;17.69;60.14
75617;BME280;64200;55.426;37.758;2023-09-19T19:55:16;99433.72;;;17.63;59.91
75617;BME280;64200;55.426;37.758;2023-09-19T20:00:17;99433.50;;;17.55;60.42
75617;BME280;64200;55.426;37.758;2023-09-19T20:05:20;99436.88;;;17.48;60.16
75617;BME280;64200;55.426;37.758;2023-09-19T20:10:21;99435.59;;;17.49;59.97
75617;BME280;64200;55.426;37.758;2023-09-19T20:15:22;99431.53;;;17.38;60.25
75617;BME280;64200;55.426;37.758;2023-09-19T20:20:25;99418.22;;;17.33;60.23
75617;BME280;64200;55.426;37.758;2023-09-19T20:25:27;99437.69;;;17.37;60.06
75617;BME280;64200;55.426;37.758;2023-09-19T20:30:28;99432.59;;;17.30;60.10
75617;BME280;64200;55.426;37.758;2023-09-19T20:35:29;99429.03;;;17.24;60.19
75617;BME280;64200;55.426;37.758;2023-09-19T20:40:30;99423.44;;;17.07;60.11
75617;BME280;64200;55.426;37.758;2023-09-19T20:45:31;99428.81;;;17.10;60.17
75617;BME280;64200;55.426;37.758;2023-09-19T20:50:33;99440.88;;;16.99;60.33
75617;BME280;64200;55.426;37.758;2023-09-19T20:55:34;99433.22;;;16.94;60.45
75617;BME280;64200;55.426;37.758;2023-09-19T21:00:39;99437.06;;;16.97;60.45
75617;BME280;64200;55.426;37.758;2023-09-19T21:05:42;99440.13;;;16.88;60.48
75617;BME280;64200;55.426;37.758;2023-09-19T21:10:43;99429.63;;;16.82;60.46
75617;BME280;64200;55.426;37.758;2023-09-19T21:15:43;99423.28;;;16.54;60.95
75617;BME280;64200;55.426;37.758;2023-09-19T21:20:44;99434.78;;;16.67;60.64
75617;BME280;64200;55.426;37.758;2023-09-19T21:25:53;99430.94;;;16.59;60.98
75617;BME280;64200;55.426;37.758;2023-09-19T21:30:58;99435.03;;;16.52;60.78
75617;BME280;64200;55.426;37.758;2023-09-19T21:35:59;99415.84;;;16.33;61.18
75617;BME280;64200;55.426;37.758;2023-09-19T21:46:09;99424.81;;;16.38;60.99
75617;BME280;64200;55.426;37.758;2023-09-19T21:51:09;99407.16;;;16.26;61.21
75617;BME280;64200;55.426;37.758;2023-09-19T21:56:10;99425.34;;;16.36;61.11
75617;BME280;64200;55.426;37.758;2023-09-19T22:01:12;99421.47;;;16.28;60.97
75617;BME280;64200;55.426;37.758;2023-09-19T22:06:13;99434.03;;;16.21;61.38
75617;BME280;64200;55.426;37.758;2023-09-19T22:11:14;99423.00;;;16.18;61.21
75617;BME280;64200;55.426;37.758;2023-09-19T22:16:16;99433.00;;;16.19;61.35
75617;BME280;64200;55.426;37.758;2023-09-19T22:21:19;99426.34;;;16.16;61.00
75617;BME280;64200;55.426;37.758;2023-09-19T22:26:22;99426.84;;;16.09;61.18
75617;BME280;64200;55.426;37.758;2023-09-19T22:31:25;99427.34;;;15.96;61.45
75617;BME280;64200;55.426;37.758;2023-09-19T22:36:38;99422.50;;;16.02;61.33
75617;BME280;64200;55.426;37.758;2023-09-19T22:41:43;99418.66;;;16.00;61.40
75617;BME280;64200;55.426;37.758;2023-09-19T22:46:43;99414.31;;;15.87;61.39
75617;BME280;64200;55.426;37.758;2023-09-19T22:51:47;99415.56;;;15.86;61.42
75617;BME280;64200;55.426;37.758;2023-09-19T22:56:52;99401.72;;;15.71;61.35
75617;BME280;64200;55.426;37.758;2023-09-19T23:01:53;99411.44;;;15.76;61.92
75617;BME280;64200;55.426;37.758;2023-09-19T23:06:53;99404.28;;;15.69;61.74
75617;BME280;64200;55.426;37.758;2023-09-19T23:11:59;99411.72;;;15.78;61.51
75617;BME280;64200;55.426;37.758;2023-09-19T23:17:10;99405.25;;;15.66;61.66
75617;BME280;64200;55.426;37.758;2023-09-19T23:22:15;99401.94;;;15.62;61.79
75617;BME280;64200;55.426;37.758;2023-09-19T23:27:18;99408.50;;;15.36;62.54
75617;BME280;64200;55.426;37.758;2023-09-19T23:32:24;99407.00;;;15.46;62.06
75617;BME280;64200;55.426;37.758;2023-09-19T23:37:25;99413.66;;;15.49;61.67
75617;BME280;64200;55.426;37.758;2023-09-19T23:42:25;99403.66;;;15.42;62.09
75617;BME280;64200;55.426;37.758;2023-09-19T23:47:28;99404.16;;;15.41;62.11
75617;BME280;64200;55.426;37.758;2023-09-19T23:52:28;99410.03;;;15.32;62.52
75617;BME280;64200;55.426;37.758;2023-09-19T23:57:29;99412.03;;;15.25;62.44
